Time;durP1;ratioP1;P1;durP2;ratioP2;P2;SDS_P1;SDS_P2;PMS_P1;PMS_P2;Temp;Humidity;BMP_temperature;BMP_pressure;BME280_temperature;BME280_humidity;BME280_pressure;Samples;Min_cycle;Max_cycle;Signal;HPM_P1;HPM_P2
2022/11/15 00:00:46;;;;;;;14.68;9.40;;;;;;;3.50;97.44;95243.09;5089688;28;20263;-81
2022/11/15 00:03:15;;;;;;;22.80;8.73;;;;;;;3.50;97.70;95239.63;5089842;28;20232;-81
2022/11/15 00:05:42;;;;;;;21.65;9.98;;;;;;;3.55;97.56;95240.41;5090066;28;20224;-80
2022/11/15 00:08:09;;;;;;;21.83;11.25;;;;;;;3.41;97.38;95243.91;5089541;28;20732;-80
2022/11/15 00:10:35;;;;;;;23.80;11.02;;;;;;;3.38;97.30;95247.94;5089885;28;20210;-80
2022/11/15 00:13:05;;;;;;;19.70;10.40;;;;;;;3.35;97.81;95235.06;5089349;28;20252;-80
2022/11/15 00:15:35;;;;;;;23.42;12.38;;;;;;;3.34;98.40;95229.97;5103348;28;20193;-80
2022/11/15 00:18:02;;;;;;;19.15;10.25;;;;;;;3.33;98.33;95237.19;5109880;28;20292;-81
2022/11/15 00:20:29;;;;;;;22.88;10.23;;;;;;;3.23;98.29;95237.19;5110015;28;20229;-80
2022/11/15 00:22:56;;;;;;;27.83;10.50;;;;;;;3.19;98.45;95230.75;5102300;28;20202;-80
2022/11/15 00:25:23;;;;;;;16.92;9.93;;;;;;;3.15;98.04;95227.81;5089730;28;20221;-80
2022/11/15 00:27:51;;;;;;;17.67;9.60;;;;;;;3.16;98.21;95231.28;5089127;28;20199;-80
2022/11/15 00:30:18;;;;;;;23.92;9.95;;;;;;;3.20;98.13;95216.31;5104624;28;20197;-80
2022/11/15 00:32:46;;;;;;;18.35;9.55;;;;;;;3.22;97.95;95227.56;5109319;28;20241;-81
2022/11/15 00:35:13;;;;;;;21.30;10.20;;;;;;;3.24;98.09;95228.09;5109737;28;20197;-80
2022/11/15 00:37:40;;;;;;;20.95;10.05;;;;;;;3.21;97.71;95217.91;5110090;28;20270;-80
2022/11/15 00:40:08;;;;;;;15.90;8.32;;;;;;;3.08;97.73;95224.59;5108959;28;20342;-81
2022/11/15 00:42:35;;;;;;;22.95;11.27;;;;;;;3.12;97.92;95214.19;5109711;28;20217;-81
2022/11/15 00:45:01;;;;;;;24.30;10.65;;;;;;;3.14;97.79;95217.41;5108805;28;20270;-80
2022/11/15 00:47:28;;;;;;;21.95;11.00;;;;;;;3.20;98.40;95216.31;5109713;28;20270;-80
2022/11/15 00:49:56;;;;;;;14.93;8.80;;;;;;;3.17;98.56;95211.47;5109679;28;20622;-80
2022/11/15 00:52:23;;;;;;;23.05;9.70;;;;;;;3.26;98.63;95219.81;5110056;28;20201;-80
2022/11/15 00:54:50;;;;;;;28.90;10.85;;;;;;;3.15;97.87;95208.25;5109188;28;20209;-80
2022/11/15 00:57:16;;;;;;;21.33;10.00;;;;;;;3.11;97.55;95204.53;5109753;28;20317;-79
2022/11/15 00:59:43;;;;;;;28.23;12.32;;;;;;;3.08;97.50;95205.06;5110183;28;20237;-81
2022/11/15 01:02:10;;;;;;;22.52;11.88;;;;;;;3.02;98.13;95203.44;5110166;28;20205;-80
2022/11/15 01:04:37;;;;;;;28.67;9.93;;;;;;;3.02;98.07;95208.78;5109856;28;20209;-80
2022/11/15 01:07:05;;;;;;;22.40;9.68;;;;;;;3.00;97.65;95205.59;5110041;28;20206;-81
2022/11/15 01:09:31;;;;;;;22.77;11.43;;;;;;;2.97;98.13;95201.56;5109872;28;20228;-80
2022/11/15 01:11:58;;;;;;;32.22;12.88;;;;;;;2.90;98.27;95206.38;5109573;28;20201;-80
2022/11/15 01:14:26;;;;;;;24.00;10.13;;;;;;;2.89;97.89;95204.75;5109375;28;20346;-82
2022/11/15 01:16:53;;;;;;;23.80;11.40;;;;;;;2.88;97.82;95205.03;5098202;28;20202;-79
2022/11/15 01:19:19;;;;;;;31.00;12.38;;;;;;;2.88;97.99;95203.16;5089648;28;20234;-81
2022/11/15 01:21:46;;;;;;;20.52;11.35;;;;;;;2.89;98.14;95203.94;5089585;28;20275;-81
2022/11/15 01:24:14;;;;;;;21.23;11.15;;;;;;;2.80;98.60;95201.81;5117309;28;20714;-81
2022/11/15 01:26:42;;;;;;;19.88;8.85;;;;;;;2.91;98.61;95201.81;5088503;28;20661;-81
2022/11/15 01:29:09;;;;;;;20.08;10.95;;;;;;;2.92;98.33;95198.06;5088636;28;20263;-81
2022/11/15 01:31:35;;;;;;;19.00;10.05;;;;;;;2.85;98.55;95193.00;5088469;28;20233;-80
2022/11/15 01:34:02;;;;;;;28.63;11.57;;;;;;;2.98;98.99;95197.84;5112493;28;20201;-81
2022/11/15 01:36:30;;;;;;;19.70;10.38;;;;;;;3.05;98.73;95197.56;5104766;27;20629;-81
2022/11/15 01:38:58;;;;;;;20.48;10.48;;;;;;;3.05;98.00;95200.22;5088885;28;20668;-80
2022/11/15 01:41:29;;;;;;;19.83;10.45;;;;;;;3.06;97.90;95199.16;5088794;28;20549;-82
2022/11/15 01:43:58;;;;;;;25.05;12.90;;;;;;;3.18;97.74;95197.03;5092936;28;20589;-80
2022/11/15 01:46:30;;;;;;;19.73;11.25;;;;;;;3.08;96.25;95202.38;5106591;28;20672;-81
2022/11/15 01:49:01;;;;;;;30.63;12.40;;;;;;;2.98;96.84;95197.84;5101446;28;20198;-80
2022/11/15 01:51:32;;;;;;;25.83;11.70;;;;;;;2.97;96.94;95198.09;5123670;27;20214;-80
2022/11/15 01:54:03;;;;;;;26.58;13.40;;;;;;;2.93;97.92;95199.69;5091972;28;20244;-79
2022/11/15 01:56:36;;;;;;;22.38;11.43;;;;;;;2.91;98.66;95188.44;5091991;28;20626;-80
2022/11/15 01:59:07;;;;;;;29.33;12.52;;;;;;;2.97;98.60;95200.78;5092450;28;20198;-79
2022/11/15 02:01:34;;;;;;;35.05;12.63;;;;;;;2.92;97.94;95195.41;5092170;28;20202;-80
2022/11/15 02:04:08;;;;;;;17.40;9.23;;;;;;;2.93;97.89;95197.00;5092025;28;20297;-80
2022/11/15 02:06:36;;;;;;;17.15;9.48;;;;;;;2.93;98.62;95183.63;5107513;27;20254;-81
2022/11/15 02:09:03;;;;;;;18.23;9.93;;;;;;;3.05;98.75;95181.50;5103662;27;20217;-82
2022/11/15 02:11:32;;;;;;;50.28;24.70;;;;;;;3.03;98.66;95189.00;5092276;28;20206;-80
2022/11/15 02:14:00;;;;;;;58.33;26.85;;;;;;;2.92;98.72;95182.03;5106955;28;20656;-80
2022/11/15 02:16:36;;;;;;;18.90;9.30;;;;;;;2.82;98.06;95188.97;5112637;28;20207;-79
2022/11/15 02:19:20;;;;;;;27.10;11.27;;;;;;;2.81;97.73;95192.72;5112573;27;20205;-80
2022/11/15 02:21:58;;;;;;;22.60;11.13;;;;;;;2.80;96.88;95183.09;5112340;28;20609;-80
2022/11/15 02:24:48;;;;;;;26.50;11.48;;;;;;;2.75;96.55;95188.41;5119935;27;20261;-80
2022/11/15 02:27:56;;;;;;;20.27;8.82;;;;;;;2.70;96.99;95185.75;5097654;27;20250;-79
2022/11/15 02:30:33;;;;;;;20.40;10.65;;;;;;;2.80;98.04;95185.75;5108555;28;20213;-79
2022/11/15 02:33:11;;;;;;;19.85;10.35;;;;;;;2.94;97.80;95185.25;5112596;28;20233;-80
2022/11/15 02:35:54;;;;;;;24.52;10.20;;;;;;;2.91;97.84;95183.91;5111921;28;20564;-80
2022/11/15 02:38:29;;;;;;;32.30;15.90;;;;;;;2.97;98.26;95184.72;5112560;28;20209;-79
2022/11/15 02:41:03;;;;;;;24.75;12.30;;;;;;;3.04;97.56;95179.91;5112496;28;20241;-79
2022/11/15 02:47:12;;;;;;;18.33;9.32;;;;;;;3.08;97.70;95181.78;5104233;27;20201;-80
2022/11/15 02:49:15;;;;;;;21.48;10.88;;;;;;;3.20;97.21;95178.84;5091049;28;20206;-80
2022/11/15 02:51:44;;;;;;;20.88;9.57;;;;;;;3.28;96.61;95183.66;5110229;28;20247;-80
2022/11/15 02:54:17;;;;;;;19.25;10.07;;;;;;;3.39;96.49;95182.59;5111631;28;20202;-80
2022/11/15 02:56:45;;;;;;;18.70;11.05;;;;;;;3.49;96.59;95171.88;5111554;27;20223;-80
2022/11/15 02:59:28;;;;;;;20.65;9.52;;;;;;;3.64;96.54;95183.63;5110833;28;20205;-81
2022/11/15 03:02:13;;;;;;;26.38;12.45;;;;;;;3.74;96.02;95183.63;5100342;28;20206;-80
2022/11/15 03:04:45;;;;;;;25.58;11.68;;;;;;;3.78;95.50;95184.69;5111581;28;20197;-81
2022/11/15 03:07:18;;;;;;;20.05;10.15;;;;;;;3.83;95.30;95176.63;5110939;28;20197;-81
2022/11/15 03:09:53;;;;;;;21.08;10.45;;;;;;;3.89;95.24;95187.06;5118172;27;20255;-81
2022/11/15 03:12:27;;;;;;;18.98;8.95;;;;;;;3.91;94.80;95184.13;5090910;28;20209;-81
2022/11/15 03:15:02;;;;;;;15.35;8.10;;;;;;;3.89;93.70;95180.91;5090175;28;20201;-81
2022/11/15 03:17:34;;;;;;;11.57;6.88;;;;;;;3.83;93.10;95176.63;5107582;28;20689;-81
2022/11/15 03:20:04;;;;;;;16.33;8.85;;;;;;;3.86;93.50;95176.09;5110808;28;20213;-81
2022/11/15 03:22:36;;;;;;;20.73;9.82;;;;;;;3.93;92.75;95181.97;5106812;28;20643;-82
2022/11/15 03:25:08;;;;;;;18.92;8.10;;;;;;;3.96;91.72;95180.63;5090986;28;20213;-81
2022/11/15 03:27:39;;;;;;;15.73;6.97;;;;;;;4.03;91.92;95170.41;5096143;28;20206;-81
2022/11/15 03:30:09;;;;;;;15.93;7.68;;;;;;;3.99;93.27;95170.16;5123773;27;20230;-81
2022/11/15 03:32:41;;;;;;;15.68;8.95;;;;;;;3.91;93.89;95173.41;5097041;28;20249;-81
2022/11/15 03:35:11;;;;;;;20.10;9.65;;;;;;;3.97;94.41;95172.28;5111006;28;20201;-80
2022/11/15 03:37:42;;;;;;;15.73;7.32;;;;;;;4.10;93.61;95160.22;5111091;28;20250;-80
2022/11/15 03:40:10;;;;;;;18.88;8.55;;;;;;;4.06;93.49;95154.59;5112148;27;20233;-80
2022/11/15 03:42:43;;;;;;;18.23;8.82;;;;;;;4.21;93.43;95157.22;5114492;27;20206;-80
2022/11/15 03:45:15;;;;;;;13.18;7.28;;;;;;;4.29;93.91;95161.19;5090393;28;20210;-80
2022/11/15 03:47:50;;;;;;;16.92;9.32;;;;;;;4.42;93.10;95151.75;5089900;28;20279;-80
2022/11/15 03:50:19;;;;;;;16.65;7.65;;;;;;;4.25;93.26;95147.53;5095976;28;20201;-80
2022/11/15 03:52:47;;;;;;;16.58;7.53;;;;;;;4.31;94.12;95145.66;5110769;28;20697;-80
2022/11/15 03:55:17;;;;;;;21.27;8.23;;;;;;;4.25;94.94;95141.38;5110542;28;20676;-79
2022/11/15 03:57:44;;;;;;;18.80;8.07;;;;;;;4.16;95.03;95143.84;5109515;28;20610;-79
2022/11/15 04:00:12;;;;;;;22.95;8.20;;;;;;;4.15;94.55;95139.53;5109276;28;20337;-80
2022/11/15 04:02:39;;;;;;;18.85;8.38;;;;;;;4.03;93.70;95144.41;5110111;28;20232;-80
2022/11/15 04:05:08;;;;;;;17.20;8.27;;;;;;;3.93;93.69;95149.81;5109978;28;20213;-80
2022/11/15 04:07:34;;;;;;;21.40;9.10;;;;;;;3.77;95.12;95148.25;5122010;27;20201;-80
2022/11/15 04:10:05;;;;;;;23.10;10.45;;;;;;;3.60;96.25;95143.19;5089272;28;20747;-80
2022/11/15 04:12:32;;;;;;;25.25;11.23;;;;;;;3.87;95.96;95140.19;5089238;28;20301;-79
2022/11/15 04:15:09;;;;;;;23.13;13.32;;;;;;;3.93;95.39;95139.09;5089913;28;20240;-80
2022/11/15 04:17:38;;;;;;;19.95;10.82;;;;;;;3.91;96.05;95142.03;5088859;28;20233;-80
2022/11/15 04:25:39;;;;;;;21.58;11.57;;;;;;;4.17;94.97;95129.34;5123734;27;20713;-79
2022/11/15 04:28:06;;;;;;;33.13;14.23;;;;;;;4.17;95.07;95129.34;5109674;28;20664;-79
2022/11/15 04:30:32;;;;;;;27.42;11.20;;;;;;;4.08;94.78;95120.28;5109409;28;20652;-80
2022/11/15 04:32:59;;;;;;;29.35;13.13;;;;;;;3.99;95.86;95132.63;5109065;28;20237;-79
2022/11/15 04:35:27;;;;;;;33.20;14.23;;;;;;;4.14;95.68;95135.25;5109147;28;20205;-80
2022/11/15 04:37:55;;;;;;;27.33;11.85;;;;;;;4.03;96.99;95132.88;5119746;28;20201;-80
2022/11/15 04:40:21;;;;;;;23.92;10.38;;;;;;;3.97;97.52;95133.97;5095631;27;20396;-80
2022/11/15 04:42:48;;;;;;;26.85;11.73;;;;;;;3.97;97.71;95132.09;5089837;28;20264;-80
2022/11/15 04:45:15;;;;;;;36.05;12.60;;;;;;;4.02;98.45;95136.66;5089584;28;20364;-80
2022/11/15 04:47:45;;;;;;;38.53;13.55;;;;;;;4.12;98.67;95137.41;5089057;28;20210;-80
2022/11/15 04:50:13;;;;;;;25.83;13.98;;;;;;;4.00;98.08;95134.22;5095524;28;20201;-80
2022/11/15 04:52:41;;;;;;;23.98;11.00;;;;;;;3.85;97.77;95134.28;5109644;28;20225;-80
2022/11/15 04:55:09;;;;;;;33.72;13.13;;;;;;;3.80;98.51;95140.47;5109948;28;20289;-80
2022/11/15 04:57:35;;;;;;;30.42;13.77;;;;;;;3.88;98.50;95137.22;5109889;28;20602;-79
2022/11/15 05:00:04;;;;;;;21.50;10.18;;;;;;;3.80;97.48;95134.31;5103493;28;20230;-79
2022/11/15 05:04:18;;;;;;;20.48;9.70;;;;;;;3.73;96.89;95133.78;5088955;28;20279;-81
2022/11/15 05:05:16;;;;;;;22.33;9.43;;;;;;;3.47;96.68;95144.56;5098208;28;20263;-80
2022/11/15 05:07:44;;;;;;;16.02;8.07;;;;;;;3.47;96.52;95141.88;5106313;28;20189;-80
2022/11/15 05:10:12;;;;;;;12.90;6.95;;;;;;;3.24;96.69;95141.63;5099099;28;20233;-80
2022/11/15 05:12:39;;;;;;;14.63;6.85;;;;;;;3.17;97.13;95136.53;5105094;28;20546;-79
2022/11/15 05:15:06;;;;;;;15.48;6.65;;;;;;;3.06;97.92;95140.28;5107800;28;20210;-78
2022/11/15 05:17:33;;;;;;;10.88;6.32;;;;;;;2.93;98.05;95143.50;5111069;28;20215;-80
2022/11/15 05:20:00;;;;;;;28.05;16.05;;;;;;;2.80;99.23;95142.97;5110119;28;20743;-80
2022/11/15 05:22:27;;;;;;;32.88;17.05;;;;;;;2.93;99.67;95141.63;5107706;28;20209;-79
2022/11/15 05:24:55;;;;;;;29.65;15.65;;;;;;;2.95;99.73;95144.03;5124632;27;20604;-79
2022/11/15 05:27:22;;;;;;;31.00;16.48;;;;;;;2.96;99.78;95140.28;5099187;27;20664;-80
2022/11/15 05:29:49;;;;;;;32.63;17.85;;;;;;;2.98;100.00;95140.84;5092952;28;20750;-78
2022/11/15 05:32:18;;;;;;;36.08;18.90;;;;;;;2.98;100.00;95143.50;5122524;27;20708;-78
2022/11/15 05:34:46;;;;;;;32.58;17.25;;;;;;;3.01;100.00;95133.06;5111386;28;20205;-79
2022/11/15 05:37:13;;;;;;;32.78;17.58;;;;;;;3.16;100.00;95140.28;5110716;28;20209;-78
2022/11/15 05:39:40;;;;;;;36.58;18.50;;;;;;;3.31;99.76;95137.59;5110866;28;20292;-80
2022/11/15 05:42:11;;;;;;;35.20;17.65;;;;;;;3.20;99.94;95136.81;5111249;28;20722;-81
2022/11/15 05:44:42;;;;;;;34.38;17.25;;;;;;;3.22;100.00;95140.03;5125864;27;20201;-79
2022/11/15 05:47:13;;;;;;;39.15;18.75;;;;;;;3.19;100.00;95137.06;5093049;27;20202;-79
2022/11/15 05:49:43;;;;;;;17.77;7.63;;;;;;;3.20;100.00;95136.00;5095349;27;20591;-80
2022/11/15 05:52:12;;;;;;;29.40;8.60;;;;;;;3.28;100.00;95138.13;5116166;27;20232;-80
2022/11/15 05:54:39;;;;;;;12.10;6.05;;;;;;;3.15;100.00;95138.69;5091449;28;20210;-80
2022/11/15 05:57:08;;;;;;;9.90;5.53;;;;;;;3.11;100.00;95143.78;5092128;28;20263;-78
2022/11/15 05:59:36;;;;;;;28.77;6.88;;;;;;;3.21;100.00;95137.63;5092053;28;20596;-79
2022/11/15 06:02:02;;;;;;;17.25;8.77;;;;;;;3.30;100.00;95136.00;5092449;28;20229;-79
2022/11/15 06:04:29;;;;;;;23.65;7.43;;;;;;;3.34;100.00;95141.63;5091717;28;20202;-79
2022/11/15 06:06:56;;;;;;;20.67;8.10;;;;;;;3.43;100.00;95146.16;5092283;28;20255;-79
2022/11/15 06:09:23;;;;;;;16.17;6.75;;;;;;;3.54;100.00;95147.78;5094975;28;20271;-79
2022/11/15 06:11:50;;;;;;;20.65;7.60;;;;;;;3.76;100.00;95152.00;5112135;28;20447;-79
2022/11/15 06:14:18;;;;;;;15.52;7.28;;;;;;;4.09;100.00;95140.66;5111998;27;20745;-80
2022/11/15 06:16:45;;;;;;;29.00;10.43;;;;;;;4.22;100.00;95153.47;5122689;27;20600;-79
2022/11/15 06:19:12;;;;;;;16.15;8.32;;;;;;;4.42;100.00;95151.75;5097807;27;20211;-80
2022/11/15 06:21:39;;;;;;;18.98;9.57;;;;;;;4.51;99.23;95155.50;5091631;28;20286;-79
2022/11/15 06:24:07;;;;;;;20.70;10.85;;;;;;;4.05;100.00;95152.19;5109824;28;20206;-79
2022/11/15 06:26:34;;;;;;;10.23;5.80;;;;;;;4.11;100.00;95151.88;5112438;28;20206;-79
2022/11/15 06:29:00;;;;;;;20.10;9.63;;;;;;;3.91;100.00;95151.97;5111773;28;20205;-79
2022/11/15 06:31:29;;;;;;;32.20;10.48;;;;;;;4.14;100.00;95155.91;5112196;28;20294;-79
2022/11/15 06:33:55;;;;;;;28.40;11.20;;;;;;;4.34;100.00;95144.31;5111464;28;20672;-79
2022/11/15 06:36:22;;;;;;;16.73;8.00;;;;;;;4.36;99.85;95136.78;5111939;28;20209;-79
2022/11/15 06:38:49;;;;;;;31.27;11.35;;;;;;;4.42;100.00;95141.03;5110890;28;20205;-79
2022/11/15 06:41:16;;;;;;;25.88;9.35;;;;;;;4.53;99.22;95135.31;5111323;28;20287;-79
2022/11/15 06:43:45;;;;;;;26.55;9.60;;;;;;;4.47;98.73;95133.78;5111044;28;20232;-80
2022/11/15 06:46:12;;;;;;;27.52;9.68;;;;;;;4.46;98.17;95137.53;5111747;28;20610;-79
2022/11/15 06:48:40;;;;;;;18.90;9.95;;;;;;;4.61;98.83;95128.59;5118580;27;20422;-79
2022/11/15 06:51:07;;;;;;;19.08;8.73;;;;;;;4.49;99.11;95136.19;5105048;28;20275;-79
2022/11/15 06:53:34;;;;;;;26.95;11.20;;;;;;;4.10;99.67;95144.13;5111475;28;20198;-78
2022/11/15 06:56:03;;;;;;;20.42;9.88;;;;;;;4.15;100.00;95142.22;5111951;28;20206;-79
2022/11/15 06:58:30;;;;;;;20.88;9.88;;;;;;;4.42;100.00;95141.03;5117088;27;20210;-78
2022/11/15 07:01:03;;;;;;;22.80;10.40;;;;;;;4.79;100.00;95141.34;5090531;28;20721;-80
2022/11/15 07:03:30;;;;;;;25.95;9.90;;;;;;;4.82;99.24;95134.63;5090893;28;20206;-80
2022/11/15 07:05:58;;;;;;;39.22;13.35;;;;;;;4.77;98.76;95130.13;5090946;28;20259;-79
2022/11/15 07:08:29;;;;;;;25.58;10.23;;;;;;;4.53;98.68;95132.66;5100135;28;20254;-78
2022/11/15 07:10:55;;;;;;;24.92;9.43;;;;;;;4.47;98.46;95135.66;5113914;27;20651;-79
2022/11/15 07:13:27;;;;;;;22.85;12.35;;;;;;;4.50;100.00;95132.41;5112819;27;20236;-80
2022/11/15 07:15:58;;;;;;;23.02;11.52;;;;;;;4.33;100.00;95124.72;5107727;28;20206;-78
2022/11/15 07:18:27;;;;;;;28.60;10.60;;;;;;;4.28;100.00;95133.59;5111446;27;20208;-79
2022/11/15 07:20:54;;;;;;;29.75;12.30;;;;;;;4.13;100.00;95128.28;5111458;28;20320;-78
2022/11/15 07:23:25;;;;;;;30.05;12.75;;;;;;;4.04;100.00;95129.94;5110958;28;20267;-79
2022/11/15 07:25:51;;;;;;;31.50;12.02;;;;;;;4.12;100.00;95125.88;5116631;27;20681;-79
2022/11/15 07:28:24;;;;;;;19.52;9.63;;;;;;;4.04;100.00;95129.94;5119243;27;20208;-80
2022/11/15 07:30:50;;;;;;;26.45;9.90;;;;;;;4.18;100.00;95130.97;5111024;28;20205;-78
2022/11/15 07:33:17;;;;;;;20.38;8.68;;;;;;;3.98;100.00;95133.69;5110868;28;20229;-79
2022/11/15 07:35:46;;;;;;;22.40;10.18;;;;;;;4.09;100.00;95132.63;5110291;28;20231;-79
2022/11/15 07:38:14;;;;;;;21.58;8.85;;;;;;;4.11;100.00;95135.78;5110928;28;20688;-78
2022/11/15 07:40:42;;;;;;;25.80;10.23;;;;;;;4.14;100.00;95132.56;5110296;28;20226;-78
2022/11/15 07:43:09;;;;;;;19.73;9.70;;;;;;;4.21;100.00;95135.78;5111978;28;20202;-78
2022/11/15 07:45:42;;;;;;;29.55;13.20;;;;;;;4.51;100.00;95139.38;5124673;27;20194;-79
2022/11/15 07:48:09;;;;;;;30.20;11.80;;;;;;;4.71;100.00;95128.53;5124005;27;20724;-79
2022/11/15 07:50:38;;;;;;;23.92;10.93;;;;;;;4.72;99.81;95123.97;5110818;28;20206;-78
2022/11/15 07:53:04;;;;;;;21.25;11.57;;;;;;;4.76;99.81;95131.19;5111034;28;20508;-79
2022/11/15 07:55:31;;;;;;;36.75;12.15;;;;;;;4.94;98.44;95122.44;5110127;28;20262;-80
2022/11/15 07:58:03;;;;;;;37.15;14.25;;;;;;;5.15;97.86;95123.13;5111782;27;20651;-79
2022/11/15 08:00:30;;;;;;;30.27;12.27;;;;;;;5.15;96.64;95125.81;5109838;28;20207;-80
2022/11/15 08:03:03;;;;;;;30.17;13.00;;;;;;;5.47;96.24;95119.84;5109913;28;20563;-80
2022/11/15 08:05:30;;;;;;;46.03;13.63;;;;;;;5.87;95.85;95117.88;5105738;28;20534;-80
2022/11/15 08:07:57;;;;;;;27.13;12.35;;;;;;;6.23;94.80;95111.00;5109800;28;20205;-81
2022/11/15 08:10:24;;;;;;;38.45;14.50;;;;;;;6.08;92.21;95113.88;5109802;28;20707;-81
2022/11/15 08:12:58;;;;;;;39.60;15.40;;;;;;;5.91;92.43;95114.34;5109725;28;20250;-80
2022/11/15 08:15:26;;;;;;;29.77;13.43;;;;;;;5.86;92.09;95113.59;5107488;28;20262;-81
2022/11/15 08:17:56;;;;;;;41.67;16.60;;;;;;;5.52;93.17;95111.75;5107954;28;20255;-80
2022/11/15 08:20:24;;;;;;;32.92;13.95;;;;;;;5.41;93.96;95120.22;5111378;27;20595;-81
2022/11/15 08:22:51;;;;;;;32.80;13.05;;;;;;;5.04;94.78;95104.69;5112668;27;20229;-80
2022/11/15 08:25:18;;;;;;;33.30;14.90;;;;;;;5.33;95.50;95113.53;5110420;27;20209;-79
2022/11/15 08:27:45;;;;;;;36.00;15.60;;;;;;;5.56;95.67;95107.44;5110488;28;20198;-81
2022/11/15 08:30:13;;;;;;;39.63;14.38;;;;;;;5.54;94.43;95098.03;5121005;27;20207;-80
2022/11/15 08:32:41;;;;;;;36.60;15.25;;;;;;;5.78;94.19;95098.06;5089854;28;20276;-80
2022/11/15 08:35:08;;;;;;;30.35;14.55;;;;;;;5.65;94.21;95113.78;5099532;28;20202;-77
2022/11/15 08:37:35;;;;;;;35.67;14.55;;;;;;;5.34;95.07;95105.19;5101744;28;20218;-73
2022/11/15 08:40:05;;;;;;;43.53;15.90;;;;;;;5.48;94.95;95107.22;5109112;28;20307;-80
2022/11/15 08:42:32;;;;;;;32.88;14.30;;;;;;;5.79;94.05;95105.03;5108614;27;20249;-76
2022/11/15 08:44:59;;;;;;;49.47;18.05;;;;;;;5.91;93.17;95103.59;5099197;28;20232;-75
2022/11/15 08:47:26;;;;;;;41.38;16.88;;;;;;;6.03;92.59;95095.09;5088562;28;20206;-75
2022/11/15 08:49:54;;;;;;;35.85;15.82;;;;;;;6.12;92.17;95093.41;5091463;28;20197;-75
2022/11/15 08:52:21;;;;;;;46.47;18.05;;;;;;;6.04;92.04;95096.72;5113107;28;20258;-79
2022/11/15 08:54:48;;;;;;;38.35;15.70;;;;;;;6.09;91.25;95093.97;5113474;28;20257;-80
2022/11/15 08:57:15;;;;;;;39.65;14.40;;;;;;;6.06;91.65;95089.16;5113413;28;20205;-82
2022/11/15 08:59:41;;;;;;;43.53;17.10;;;;;;;5.96;91.79;95078.53;5113083;28;20205;-76
2022/11/15 09:02:13;;;;;;;44.35;16.33;;;;;;;5.55;93.57;95076.28;5113331;28;20699;-75
2022/11/15 09:04:40;;;;;;;35.83;16.70;;;;;;;5.82;93.12;95072.22;5112816;28;20222;-76
2022/11/15 09:07:09;;;;;;;46.72;18.33;;;;;;;6.15;92.15;95076.66;5106077;28;20665;-74
2022/11/15 09:09:36;;;;;;;48.88;15.82;;;;;;;6.29;90.56;95066.00;5099037;28;20255;-77
2022/11/15 09:12:03;;;;;;;62.88;19.83;;;;;;;6.31;90.41;95064.63;5113484;28;20201;-79
2022/11/15 09:14:30;;;;;;;51.83;19.70;;;;;;;6.31;89.87;95061.94;5126828;27;20221;-79
2022/11/15 09:16:57;;;;;;;49.30;18.40;;;;;;;6.89;88.88;95056.25;5113553;28;20197;-78
2022/11/15 09:19:24;;;;;;;42.17;18.67;;;;;;;6.84;87.33;95055.53;5112287;28;20201;-79
2022/11/15 09:21:50;;;;;;;43.55;18.27;;;;;;;6.74;87.99;95051.09;5112901;28;20237;-77
2022/11/15 09:24:18;;;;;;;46.58;20.45;;;;;;;6.82;88.00;95044.25;5112559;28;20255;-77
2022/11/15 09:26:45;;;;;;;43.30;20.08;;;;;;;6.80;88.25;95044.56;5112864;28;20209;-77
2022/11/15 09:29:12;;;;;;;39.13;15.73;;;;;;;6.52;88.31;95049.00;5112140;28;20206;-75
2022/11/15 09:31:39;;;;;;;38.83;15.05;;;;;;;6.88;87.12;95030.41;5112829;28;20255;-77
2022/11/15 09:34:06;;;;;;;52.78;18.30;;;;;;;7.42;86.37;95034.34;5112909;27;20208;-78
2022/11/15 09:36:33;;;;;;;51.38;19.15;;;;;;;7.73;84.38;95035.38;5112759;28;20279;-78
2022/11/15 09:38:59;;;;;;;47.03;18.90;;;;;;;7.97;83.05;95028.97;5111659;28;20206;-77
2022/11/15 09:41:52;;;;;;;55.10;19.48;;;;;;;8.26;81.90;95021.34;4757273;27;79946;-76
2022/11/15 09:44:38;;;;;;;35.55;19.80;;;;;;;8.62;80.34;95015.16;5047084;28;20624;-79
2022/11/15 09:47:24;;;;;;;37.17;16.48;;;;;;;8.75;80.04;95017.00;5057736;28;20195;-80
2022/11/15 09:49:53;;;;;;;46.45;18.80;;;;;;;8.53;79.63;95015.91;5057920;28;20195;-80
2022/11/15 09:52:21;;;;;;;48.15;19.38;;;;;;;8.29;79.65;95009.13;5048563;28;20204;-77
2022/11/15 09:54:50;;;;;;;46.33;18.10;;;;;;;8.07;80.60;95009.88;5051093;28;20217;-81
2022/11/15 09:57:21;;;;;;;41.33;15.90;;;;;;;8.40;80.42;95000.53;5052073;28;20212;-78
2022/11/15 10:00:00;;;;;;;51.65;21.58;;;;;;;8.14;80.56;94994.88;5051164;28;20690;-78
2022/11/15 10:02:55;;;;;;;43.58;21.73;;;;;;;8.46;79.98;94993.94;5051017;28;20223;-79
2022/11/15 10:05:25;;;;;;;48.35;18.08;;;;;;;8.41;79.20;94991.34;5051386;28;20577;-78
2022/11/15 10:07:56;;;;;;;50.40;18.73;;;;;;;8.26;80.13;94994.34;5051708;28;20215;-77
2022/11/15 10:10:31;;;;;;;36.60;18.45;;;;;;;8.55;78.95;94988.59;5050780;28;20231;-77
2022/11/15 10:12:59;;;;;;;64.25;26.17;;;;;;;8.81;78.91;94981.47;5051593;28;20677;-77
2022/11/15 10:15:27;;;;;;;36.83;16.55;;;;;;;8.91;77.42;94977.72;5051386;28;20590;-78
2022/11/15 10:18:13;;;;;;;47.05;19.85;;;;;;;8.83;78.58;94968.47;5051140;28;20273;-78
2022/11/15 10:20:48;;;;;;;48.75;19.27;;;;;;;9.04;77.80;94963.34;5050466;28;20218;-79
2022/11/15 10:23:18;;;;;;;42.13;19.13;;;;;;;8.95;77.91;94973.31;5052439;28;20273;-79
2022/11/15 10:25:44;;;;;;;55.53;20.42;;;;;;;8.77;77.78;94966.19;5051413;28;20201;-77
2022/11/15 10:28:17;;;;;;;51.22;21.85;;;;;;;8.86;77.89;94967.06;5051659;28;20204;-80
2022/11/15 10:30:47;;;;;;;53.80;20.90;;;;;;;8.63;78.80;94954.66;5050954;28;20207;-78
2022/11/15 10:33:31;;;;;;;51.33;21.85;;;;;;;8.67;78.98;94945.63;5051464;28;20243;-81
2022/11/15 10:36:23;;;;;;;45.90;19.63;;;;;;;9.15;90.17;94940.38;5050656;28;20207;-80
2022/11/15 10:38:58;;;;;;;54.67;21.83;;;;;;;8.58;80.65;94941.28;5051873;28;20246;-80
2022/11/15 10:41:38;;;;;;;46.15;17.83;;;;;;;8.73;86.65;94930.13;5053918;28;20207;-82
2022/11/15 10:44:42;;;;;;;47.90;18.40;;;;;;;8.86;79.25;94926.53;5062743;28;20673;-77
2022/11/15 10:47:28;;;;;;;39.25;15.77;;;;;;;8.37;79.20;94925.56;5055182;28;20249;-79
2022/11/15 10:50:01;;;;;;;40.17;18.50;;;;;;;8.18;79.56;94916.81;5053901;28;20234;-79
2022/11/15 10:52:29;;;;;;;49.72;19.40;;;;;;;8.26;80.00;94908.00;5070681;28;20217;-78
2022/11/15 10:55:00;;;;;;;47.88;19.02;;;;;;;8.78;79.62;94908.38;5071026;28;20265;-78
2022/11/15 10:57:29;;;;;;;44.90;19.48;;;;;;;8.71;78.33;94911.53;5053993;28;20203;-75
2022/11/15 11:00:01;;;;;;;43.70;18.20;;;;;;;8.84;77.93;94907.16;5062218;28;20207;-76
2022/11/15 11:02:34;;;;;;;39.45;20.17;;;;;;;8.60;78.36;94896.69;5051452;28;20220;-75
2022/11/15 11:05:02;;;;;;;47.88;19.42;;;;;;;8.82;78.05;94888.53;5055860;28;20306;-74
2022/11/15 11:07:30;;;;;;;40.83;19.60;;;;;;;8.95;77.59;94886.84;5058207;28;20257;-75
2022/11/15 11:10:00;;;;;;;48.70;18.58;;;;;;;9.18;76.44;94874.06;5049872;28;20212;-74
2022/11/15 11:12:32;;;;;;;36.30;17.67;;;;;;;9.18;76.08;94863.25;5051694;28;20203;-75
2022/11/15 11:15:02;;;;;;;55.30;21.40;;;;;;;9.48;76.07;94873.22;5048622;28;20200;-77
2022/11/15 11:17:46;;;;;;;32.22;14.52;;;;;;;9.47;75.04;94870.81;5055487;28;20233;-78
2022/11/15 11:20:21;;;;;;;30.85;16.25;;;;;;;9.36;75.77;94869.53;5051078;28;20241;-78
2022/11/15 11:23:17;;;;;;;25.73;11.60;;;;;;;9.07;76.62;94868.16;5050279;28;20261;-78
2022/11/15 11:25:52;;;;;;;30.48;13.88;;;;;;;8.82;77.48;94860.72;5048433;28;20647;-75
2022/11/15 11:28:39;;;;;;;41.35;17.95;;;;;;;8.66;77.93;94848.72;5059447;28;20194;-75
2022/11/15 11:31:21;;;;;;;47.10;19.55;;;;;;;8.91;77.32;94858.84;5051372;28;20215;-75
2022/11/15 11:33:58;;;;;;;38.97;17.40;;;;;;;8.86;78.50;94840.91;5049091;28;20241;-74
2022/11/15 11:36:33;;;;;;;39.13;19.17;;;;;;;9.22;76.86;94834.50;5060574;28;20715;-75
2022/11/15 11:39:16;;;;;;;45.10;17.45;;;;;;;9.50;76.19;94825.03;5058352;28;20300;-76
2022/11/15 11:41:56;;;;;;;37.00;18.33;;;;;;;9.48;74.98;94818.34;5059282;28;20258;-74
2022/11/15 11:44:41;;;;;;;46.83;21.58;;;;;;;9.23;75.84;94817.97;5059942;28;20211;-77
2022/11/15 11:47:12;;;;;;;44.33;19.42;;;;;;;8.89;77.28;94821.34;5067872;28;20690;-79
2022/11/15 11:49:46;;;;;;;40.40;18.15;;;;;;;8.75;78.16;94811.75;5049548;28;20195;-78